Airfield :







YOU CAN JOIN US ON...

 
LOGIN :

Register | Disclaimer

   EN    FR    IT 

 









Legend :    VFR   Marginal VFR   IFR   Intensive IFR   Very Intensive IFR
Visi :
Ceiling :
>= 8 km
>= 3000ft
5 to 8 km
1000 to 3000 ft
1500m to 5 km
500 to 1000 ft
800 to 1500m
200 to 500 ft
< 800m
< 200 ft
Symbols :   Thunderstorms  Fog  Heavy snow  Heavy precipitations  Wind > 20 kt






- Airport Elevation : 192 ft
- IATA code : BGR


KBGR - Bangor International

CURRENT METAR :
  • 202253Z 34004KT 10SM CLR 11/M03 A3053 RMK AO2 SLP341 T01061033

EXPIRED METARs :
  • 202153Z 35009KT 10SM CLR 14/M04 A3053 RMK AO2 SLP338 T01441039
  • 202053Z 03010G19KT 10SM CLR 16/M05 A3052 RMK AO2 SLP336 T01561050 55000

TAF KBGR
Valid from the 20 at 18:00 until the 21 at 18:00 UTC


201720Z 2018/2118 36011KT P6SM SKC
FM202300 00000KT P6SM SKC
KZBW FIR / North America



MET'MAP, your aeronautical weather chart ! - Copyright ORBIFLY December 2007 - Disclaimer

ORBIFLY MET'MAP TEAM :

Programming & Development : Alexandra Zaïnal
Concept & original design : Baudouin d'Aumeries
Assistance for programming : Marc-Olivier Méhu
Technical & hardware support : Manuel Goepfert

Contact : metmap@orbifly.com




SOURCES & CREDITS :

   NOAA